createdAt,value
2023-03-28T00:02:28.742Z,-5.45
2023-03-28T00:05:15.688Z,-5.41
2023-03-28T00:08:02.703Z,-5.42
2023-03-28T00:10:49.622Z,-5.43
2023-03-28T00:13:36.594Z,-5.43
2023-03-28T00:16:29.848Z,-5.45
2023-03-28T00:19:16.748Z,-5.47
2023-03-28T00:22:06.370Z,-5.45
2023-03-28T00:24:53.382Z,-5.46
2023-03-28T00:27:40.418Z,-5.46
2023-03-28T00:30:27.926Z,-5.47
2023-03-28T00:33:14.772Z,-5.86
2023-03-28T00:36:02.006Z,-5.72
2023-03-28T00:38:49.189Z,-5.87
2023-03-28T00:41:37.018Z,-5.48
2023-03-28T00:45:02.321Z,-5.50
2023-03-28T00:48:01.218Z,-5.50
2023-03-28T00:51:00.000Z,-5.57
2023-03-28T00:53:47.041Z,-5.53
2023-03-28T00:56:36.682Z,-5.64
2023-03-28T00:59:28.017Z,-5.84
2023-03-28T01:02:15.588Z,-5.55
2023-03-28T01:05:31.711Z,-5.65
2023-03-28T01:08:26.767Z,-5.57
2023-03-28T01:11:14.905Z,-5.89
2023-03-28T01:14:07.947Z,-5.78
2023-03-28T01:16:55.190Z,-5.75
2023-03-28T01:20:04.423Z,-5.61
2023-03-28T01:22:58.197Z,-5.62
2023-03-28T01:26:38.916Z,-5.65
2023-03-28T01:29:29.798Z,-5.65
2023-03-28T01:32:53.383Z,-5.66
2023-03-28T01:35:42.261Z,-5.67
2023-03-28T01:38:44.426Z,-5.69
2023-03-28T01:42:13.880Z,-6.29
2023-03-28T01:45:18.960Z,-5.72
2023-03-28T01:48:18.929Z,-5.73
2023-03-28T01:51:12.141Z,-6.11
2023-03-28T01:54:07.137Z,-6.02
2023-03-28T01:57:11.647Z,-5.79
2023-03-28T02:00:46.679Z,-5.80
2023-03-28T02:03:47.121Z,-5.81
2023-03-28T02:06:56.666Z,-5.91
2023-03-28T02:09:49.379Z,-5.89
2023-03-28T02:13:00.718Z,-6.05
2023-03-28T02:16:07.037Z,-6.32
2023-03-28T02:19:03.320Z,-6.06
2023-03-28T02:22:11.706Z,-5.90
2023-03-28T02:25:14.681Z,-5.91
2023-03-28T02:28:25.444Z,-6.09
2023-03-28T02:31:29.663Z,-5.95
2023-03-28T02:34:16.718Z,-5.91
2023-03-28T02:37:03.646Z,-5.92
2023-03-28T02:40:13.825Z,-6.12
2023-03-28T02:43:26.402Z,-5.94
2023-03-28T02:46:25.596Z,-5.95
2023-03-28T02:49:49.508Z,-5.97
2023-03-28T02:52:44.719Z,-5.98
2023-03-28T02:55:48.392Z,-5.99
2023-03-28T02:59:28.937Z,-5.99
2023-03-28T03:02:16.088Z,-6.00
2023-03-28T03:05:03.193Z,-6.06
2023-03-28T03:07:51.475Z,-6.03
2023-03-28T03:10:39.110Z,-6.03
2023-03-28T03:13:26.167Z,-6.05
2023-03-28T03:16:13.510Z,-6.05
2023-03-28T03:19:00.397Z,-6.06
2023-03-28T03:21:47.582Z,-6.07
2023-03-28T03:24:34.495Z,-6.09
2023-03-28T03:27:22.362Z,-6.09
2023-03-28T03:30:09.223Z,-6.15
2023-03-28T03:33:17.038Z,-6.14
2023-03-28T03:36:07.935Z,-6.33
2023-03-28T03:38:55.037Z,-6.16
2023-03-28T03:41:43.184Z,-6.24
2023-03-28T03:44:30.313Z,-6.24
2023-03-28T03:47:17.291Z,-6.19
2023-03-28T03:50:04.579Z,-6.28
2023-03-28T03:52:53.246Z,-6.35
2023-03-28T03:55:45.459Z,-6.57
2023-03-28T03:58:32.470Z,-6.38
2023-03-28T04:01:24.956Z,-6.26
2023-03-28T04:04:13.457Z,-6.27
2023-03-28T04:07:19.366Z,-6.64
2023-03-28T04:10:08.607Z,-6.41
2023-03-28T04:12:58.654Z,-6.72
2023-03-28T04:15:45.834Z,-6.34
2023-03-28T04:18:59.821Z,-6.36
2023-03-28T04:21:50.715Z,-6.38
2023-03-28T04:24:39.431Z,-6.39
2023-03-28T04:27:36.624Z,-6.40
2023-03-28T04:30:24.408Z,-6.41
2023-03-28T04:33:29.921Z,-6.42
2023-03-28T04:36:21.874Z,-6.83
2023-03-28T04:39:17.146Z,-6.44
2023-03-28T04:42:21.771Z,-6.50
2023-03-28T04:45:37.625Z,-6.45
2023-03-28T04:48:36.847Z,-6.86
2023-03-28T04:51:24.421Z,-6.58
2023-03-28T04:54:11.557Z,-6.48
2023-03-28T04:57:08.172Z,-6.90
2023-03-28T05:00:18.143Z,-6.50
2023-03-28T05:03:26.939Z,-6.49
2023-03-28T05:06:21.853Z,-6.53
2023-03-28T05:09:09.682Z,-6.51
2023-03-28T05:11:56.649Z,-6.54
2023-03-28T05:14:44.010Z,-6.59
2023-03-28T05:17:36.420Z,-6.51
2023-03-28T05:20:30.339Z,-6.86
2023-03-28T05:23:18.049Z,-6.50
2023-03-28T05:26:13.103Z,-6.49
2023-03-28T05:29:01.060Z,-6.56
2023-03-28T05:31:48.013Z,-6.47
2023-03-28T05:34:41.254Z,-6.93
2023-03-28T05:37:29.065Z,-6.51
2023-03-28T05:40:16.145Z,-6.44
2023-03-28T05:43:03.952Z,-6.42
2023-03-28T05:45:51.847Z,-6.63
2023-03-28T05:48:41.889Z,-6.41
2023-03-28T05:51:29.096Z,-6.51
2023-03-28T05:54:18.026Z,-6.38
2023-03-28T05:57:05.155Z,-6.42
2023-03-28T05:59:52.153Z,-6.43
2023-03-28T06:02:42.564Z,-6.36
2023-03-28T06:05:30.933Z,-6.33
2023-03-28T06:08:18.203Z,-6.61
2023-03-28T06:11:05.244Z,-6.31
2023-03-28T06:14:07.214Z,-6.30
2023-03-28T06:16:55.627Z,-6.40
2023-03-28T06:19:43.067Z,-6.26
2023-03-28T06:22:30.291Z,-6.24
2023-03-28T06:25:26.627Z,-6.23
2023-03-28T06:28:13.651Z,-6.39
2023-03-28T06:31:20.638Z,-6.17
2023-03-28T06:34:08.745Z,-6.18
2023-03-28T06:37:05.785Z,-6.13
2023-03-28T06:40:11.610Z,-6.18
2023-03-28T06:42:59.030Z,-6.06
2023-03-28T06:46:06.394Z,-6.04
2023-03-28T06:48:53.994Z,-6.24
2023-03-28T06:51:43.926Z,-6.00
2023-03-28T06:54:31.718Z,-5.96
2023-03-28T06:57:19.079Z,-6.16
2023-03-28T07:00:08.196Z,-5.90
2023-03-28T07:03:13.777Z,-5.86
2023-03-28T07:06:02.301Z,-5.83
2023-03-28T07:08:52.791Z,-5.80
2023-03-28T07:11:45.174Z,-5.76
2023-03-28T07:14:32.358Z,-5.72
2023-03-28T07:17:20.845Z,-5.69
2023-03-28T07:20:08.095Z,-5.66
2023-03-28T07:22:55.729Z,-5.63
2023-03-28T07:25:43.137Z,-5.60
2023-03-28T07:28:30.158Z,-5.72
2023-03-28T07:31:17.276Z,-5.54
2023-03-28T07:34:04.346Z,-5.49
2023-03-28T07:36:51.281Z,-5.46
2023-03-28T07:39:54.129Z,-5.51
2023-03-28T07:42:43.694Z,-5.68
2023-03-28T07:45:31.454Z,-5.37
2023-03-28T07:48:18.826Z,-5.72
2023-03-28T07:51:05.758Z,-5.31
2023-03-28T07:53:53.459Z,-5.27
2023-03-28T07:56:41.091Z,-5.32
2023-03-28T08:00:00.230Z,-5.18
2023-03-28T08:02:47.859Z,-5.16
2023-03-28T08:05:35.256Z,-5.23
2023-03-28T08:08:22.234Z,-5.13
2023-03-28T08:11:23.652Z,-4.99
2023-03-28T08:14:10.659Z,-5.09
2023-03-28T08:16:58.181Z,-4.89
2023-03-28T08:19:45.111Z,-4.84
2023-03-28T08:22:32.129Z,-4.96
2023-03-28T08:25:51.037Z,-4.84
2023-03-28T08:28:42.086Z,-4.68
2023-03-28T08:31:32.005Z,-4.63
2023-03-28T08:34:26.387Z,-4.61
2023-03-28T08:37:16.645Z,-4.53
2023-03-28T08:40:06.445Z,-4.48
2023-03-28T08:43:10.902Z,-4.43
2023-03-28T08:46:17.482Z,-4.36
2023-03-28T08:49:07.323Z,-4.45
2023-03-28T08:51:56.745Z,-4.25
2023-03-28T08:54:50.740Z,-4.21
2023-03-28T08:57:45.463Z,-4.15
2023-03-28T09:00:45.939Z,-4.11
2023-03-28T09:03:35.911Z,-4.05
2023-03-28T09:06:50.629Z,-4.02
2023-03-28T09:09:46.729Z,-3.93
2023-03-28T09:12:57.371Z,-3.88
2023-03-28T09:16:26.283Z,-3.83
2023-03-28T09:19:40.568Z,-3.77
2023-03-28T09:23:17.413Z,-3.70
2023-03-28T09:26:35.211Z,-3.64
2023-03-28T09:29:33.785Z,-3.58
2023-03-28T09:32:31.459Z,-3.50
2023-03-28T09:35:19.100Z,-3.70
2023-03-28T09:38:12.224Z,-3.37
2023-03-28T09:41:01.115Z,-3.29
2023-03-28T09:44:07.419Z,-3.21
2023-03-28T09:46:59.684Z,-3.14
2023-03-28T09:50:12.335Z,-3.09
2023-03-28T09:53:02.050Z,-3.01
2023-03-28T09:56:03.371Z,-2.99
2023-03-28T09:59:26.222Z,-2.89
2023-03-28T10:02:17.412Z,-2.84
2023-03-28T10:05:06.142Z,-2.78
2023-03-28T10:08:11.799Z,-2.74
2023-03-28T10:11:13.758Z,-2.76
2023-03-28T10:14:12.237Z,-2.67
2023-03-28T10:16:59.164Z,-2.59
2023-03-28T10:19:57.273Z,-2.75
2023-03-28T10:22:47.696Z,-2.49
2023-03-28T10:25:41.530Z,-2.72
2023-03-28T10:28:36.431Z,-2.38
2023-03-28T10:31:25.022Z,-2.38
2023-03-28T10:34:12.664Z,-2.28
2023-03-28T10:37:14.380Z,-2.21
2023-03-28T10:40:23.050Z,-2.17
2023-03-28T10:43:13.005Z,-2.27
2023-03-28T10:46:03.259Z,-2.08
2023-03-28T10:49:38.125Z,-2.02
2023-03-28T10:52:48.157Z,-1.98
2023-03-28T10:55:45.361Z,-1.92
2023-03-28T10:59:07.458Z,-2.11
2023-03-28T11:02:07.350Z,-1.82
2023-03-28T11:05:16.052Z,-1.77
2023-03-28T11:08:40.172Z,-1.71
2023-03-28T11:12:38.097Z,-1.64
2023-03-28T11:15:47.579Z,-1.80
2023-03-28T11:18:59.286Z,-1.49
2023-03-28T11:22:20.141Z,-1.43
2023-03-28T11:25:37.918Z,-1.38
2023-03-28T11:28:45.349Z,-1.34
2023-03-28T11:31:44.405Z,-1.44
2023-03-28T11:34:37.546Z,-1.29
2023-03-28T11:37:59.776Z,-1.26
2023-03-28T11:41:14.153Z,-1.24
2023-03-28T11:44:21.185Z,-1.23
2023-03-28T11:47:30.480Z,-1.22
2023-03-28T11:50:53.169Z,-1.21
2023-03-28T11:54:14.761Z,-1.20
2023-03-28T11:57:16.540Z,-1.23
2023-03-28T12:00:34.268Z,-1.22
2023-03-28T12:03:43.517Z,-1.15
2023-03-28T12:06:43.985Z,-1.12
2023-03-28T12:09:53.929Z,-1.08
2023-03-28T12:12:51.027Z,-1.23
2023-03-28T12:15:41.850Z,-1.11
2023-03-28T12:18:42.631Z,-0.99
2023-03-28T12:21:41.924Z,-1.05
2023-03-28T12:24:58.607Z,-0.93
2023-03-28T12:27:53.453Z,-0.89
2023-03-28T12:30:47.373Z,-0.87
2023-03-28T12:33:57.949Z,-0.90
2023-03-28T12:37:07.817Z,-0.80
2023-03-28T12:40:07.841Z,-0.74
2023-03-28T12:42:56.801Z,-0.69
2023-03-28T12:45:51.188Z,-0.65
2023-03-28T12:48:50.770Z,-0.61
2023-03-28T12:51:45.646Z,-0.58
2023-03-28T12:54:36.206Z,-1.00
2023-03-28T13:00:32.271Z,-0.51
2023-03-28T13:04:09.122Z,-0.53
2023-03-28T17:00:11.704Z,-1.78
2023-03-28T17:02:59.340Z,-1.80
2023-03-28T17:05:46.320Z,-1.81
2023-03-28T17:08:33.247Z,-2.05
2023-03-28T17:11:20.283Z,-1.94
2023-03-28T17:14:10.154Z,-1.84
2023-03-28T17:16:57.360Z,-1.86
2023-03-28T17:19:44.214Z,-1.87
2023-03-28T17:22:31.070Z,-1.87
2023-03-28T17:25:17.921Z,-1.88
2023-03-28T17:28:05.086Z,-1.91
2023-03-28T17:30:52.140Z,-1.98
2023-03-28T17:33:39.849Z,-1.93
2023-03-28T17:36:39.157Z,-2.03
2023-03-28T17:39:26.027Z,-1.99
2023-03-28T17:42:12.954Z,-2.32
2023-03-28T17:44:59.985Z,-2.04
2023-03-28T17:47:46.980Z,-2.51
2023-03-28T17:50:34.102Z,-2.08
2023-03-28T17:53:21.096Z,-2.08
2023-03-28T17:56:08.206Z,-2.13
2023-03-28T17:58:55.752Z,-2.25
2023-03-28T18:01:42.865Z,-2.20
2023-03-28T18:04:29.834Z,-2.14
2023-03-28T18:07:42.041Z,-2.42
2023-03-28T18:10:30.197Z,-2.39
2023-03-28T18:13:17.513Z,-2.26
2023-03-28T18:16:04.938Z,-2.19
2023-03-28T18:18:53.061Z,-2.49
2023-03-28T18:21:40.813Z,-2.22
2023-03-28T18:24:28.002Z,-2.23
2023-03-28T18:27:15.250Z,-2.66
2023-03-28T18:30:02.130Z,-2.25
2023-03-28T18:32:49.093Z,-2.27
2023-03-28T18:35:36.180Z,-2.28
2023-03-28T18:38:23.120Z,-2.30
2023-03-28T18:41:13.019Z,-2.31
2023-03-28T18:44:01.287Z,-2.33
2023-03-28T18:46:48.244Z,-2.33
2023-03-28T18:49:35.126Z,-2.34
2023-03-28T18:52:27.097Z,-2.38
2023-03-28T18:55:15.156Z,-2.66
2023-03-28T18:58:02.247Z,-2.38
2023-03-28T19:00:49.104Z,-2.57
2023-03-28T19:03:36.264Z,-2.47
2023-03-28T19:06:23.468Z,-2.42
2023-03-28T19:09:10.903Z,-2.42
2023-03-28T19:11:57.718Z,-2.44
2023-03-28T19:14:44.700Z,-2.57
2023-03-28T19:17:31.557Z,-2.44
2023-03-28T19:20:18.437Z,-2.49
2023-03-28T19:23:05.278Z,-2.48
2023-03-28T19:25:52.478Z,-2.55
2023-03-28T19:28:40.442Z,-2.55
2023-03-28T19:31:29.899Z,-2.47
2023-03-28T19:34:16.790Z,-2.48
2023-03-28T19:37:04.140Z,-2.55
2023-03-28T19:39:51.098Z,-2.56
2023-03-28T19:42:38.207Z,-2.49
2023-03-28T19:45:25.601Z,-2.62
2023-03-28T19:48:12.908Z,-2.65
2023-03-28T19:50:59.869Z,-2.51
2023-03-28T19:53:46.732Z,-2.98
2023-03-28T19:56:33.852Z,-2.84
2023-03-28T19:59:20.896Z,-2.56
2023-03-28T20:02:07.862Z,-2.53
2023-03-28T20:04:54.953Z,-2.56
2023-03-28T20:07:41.990Z,-2.58
2023-03-28T20:10:29.515Z,-2.53
2023-03-28T20:13:16.428Z,-2.67
2023-03-28T20:16:05.874Z,-2.54
2023-03-28T20:18:53.677Z,-2.72
2023-03-28T20:21:40.704Z,-2.55
2023-03-28T20:24:27.851Z,-2.61
2023-03-28T20:27:14.698Z,-2.58
2023-03-28T20:30:01.827Z,-2.56
2023-03-28T20:32:49.013Z,-2.90
2023-03-28T20:35:35.969Z,-2.72
2023-03-28T20:38:23.305Z,-2.59
2023-03-28T20:41:10.349Z,-2.61
2023-03-28T20:43:57.398Z,-2.60
2023-03-28T20:46:44.306Z,-2.59
2023-03-28T20:49:31.644Z,-2.77
2023-03-28T20:52:18.431Z,-2.64
2023-03-28T20:55:05.611Z,-2.60
2023-03-28T20:57:52.557Z,-2.94
2023-03-28T21:00:39.782Z,-2.60
2023-03-28T21:03:26.745Z,-2.62
2023-03-28T21:06:13.572Z,-2.61
2023-03-28T21:09:00.476Z,-2.63
2023-03-28T21:11:53.130Z,-2.66
2023-03-28T21:14:40.133Z,-2.65
2023-03-28T21:17:27.337Z,-2.87
2023-03-28T21:20:14.946Z,-2.63
2023-03-28T21:23:01.915Z,-2.80
2023-03-28T21:25:48.842Z,-2.66
2023-03-28T21:28:35.906Z,-2.64
2023-03-28T21:31:24.932Z,-2.67
2023-03-28T21:34:13.439Z,-2.65
2023-03-28T21:37:00.342Z,-2.66
2023-03-28T21:39:47.484Z,-2.67
2023-03-28T21:42:34.343Z,-2.79
2023-03-28T21:45:21.385Z,-2.67
2023-03-28T21:48:08.414Z,-2.68
2023-03-28T21:50:55.494Z,-2.69
2023-03-28T21:53:42.329Z,-2.76
2023-03-28T21:56:29.933Z,-2.71
2023-03-28T21:59:17.171Z,-2.86
2023-03-28T22:02:04.259Z,-2.75
2023-03-28T22:04:51.530Z,-2.83
2023-03-28T22:07:39.362Z,-3.12
2023-03-28T22:10:26.802Z,-2.77
2023-03-28T22:13:14.591Z,-2.79
2023-03-28T22:16:01.941Z,-2.92
2023-03-28T22:18:48.795Z,-2.81
2023-03-28T22:21:35.870Z,-2.82
2023-03-28T22:24:22.993Z,-2.84
2023-03-28T22:27:10.122Z,-2.86
2023-03-28T22:29:57.268Z,-2.85
2023-03-28T22:32:44.220Z,-3.07
2023-03-28T22:35:31.435Z,-2.87
2023-03-28T22:38:18.474Z,-2.91
2023-03-28T22:41:05.372Z,-3.02
2023-03-28T22:43:54.195Z,-2.91
2023-03-28T22:46:41.343Z,-2.91
2023-03-28T22:49:29.373Z,-3.08
2023-03-28T22:52:17.715Z,-2.93
2023-03-28T22:55:04.642Z,-3.03
2023-03-28T22:57:51.937Z,-2.96
2023-03-28T23:00:39.772Z,-2.95
2023-03-28T23:03:26.925Z,-3.02
2023-03-28T23:06:13.974Z,-3.00
2023-03-28T23:09:01.015Z,-2.97
2023-03-28T23:11:48.082Z,-2.99
2023-03-28T23:14:35.063Z,-2.97
2023-03-28T23:17:24.769Z,-2.98
2023-03-28T23:20:12.722Z,-3.11
2023-03-28T23:23:05.669Z,-3.03
2023-03-28T23:25:52.579Z,-3.01
2023-03-28T23:28:39.518Z,-3.08
2023-03-28T23:31:27.042Z,-3.35
2023-03-28T23:34:13.930Z,-3.05
2023-03-28T23:37:03.679Z,-3.02
2023-03-28T23:39:50.722Z,-3.07
2023-03-28T23:42:37.849Z,-3.05
2023-03-28T23:45:25.611Z,-3.07
2023-03-28T23:48:12.439Z,-3.06
2023-03-28T23:50:59.733Z,-3.22
2023-03-28T23:53:46.806Z,-3.12
2023-03-28T23:56:33.884Z,-3.34
2023-03-28T23:59:20.875Z,-3.32
